Time;durP1;ratioP1;P1;durP2;ratioP2;P2;SDS_P1;SDS_P2;PMS_P1;PMS_P2;Temp;Humidity;BMP_temperature;BMP_pressure;BME280_temperature;BME280_humidity;BME280_pressure;Samples;Min_cycle;Max_cycle;Signal;HPM_P1;HPM_P2
2023/06/23 05:14:04;;;;;;;10.63;6.35;;;;;;;16.59;72.06;99073.44;6193467;22;20025;-94
2023/06/23 05:16:31;;;;;;;13.57;6.95;;;;;;;16.80;72.81;99094.44;6146670;23;20028;-94
2023/06/23 05:18:59;;;;;;;12.93;7.18;;;;;;;16.62;73.03;99061.69;6141904;23;20021;-91
2023/06/23 05:21:31;;;;;;;14.63;7.03;;;;;;;16.55;73.89;99039.44;6176160;23;20037;-93
2023/06/23 05:24:10;;;;;;;16.73;7.90;;;;;;;16.27;74.55;99002.94;6150464;23;20114;-94
2023/06/23 05:26:59;;;;;;;12.95;6.38;;;;;;;16.66;73.75;99070.06;6184125;23;20080;-93
2023/06/23 05:29:26;;;;;;;15.50;7.05;;;;;;;16.49;73.44;99038.13;6178276;23;20017;-95
2023/06/23 05:31:58;;;;;;;;;;;;;;;16.88;74.14;99079.63;6152950;23;20017;-92
2023/06/23 05:34:26;;;;;;;13.48;7.18;;;;;;;16.57;74.18;99039.88;6145287;23;19916;-92
2023/06/23 05:36:53;;;;;;;13.70;8.18;;;;;;;16.40;75.14;99018.22;6121789;23;20024;-94
2023/06/23 05:39:20;;;;;;;15.40;7.35;;;;;;;16.54;75.70;99035.09;6167792;23;20017;-93
2023/06/23 05:41:47;;;;;;;14.05;7.57;;;;;;;16.72;75.20;99065.84;6142830;23;20362;-96
2023/06/23 05:44:13;;;;;;;16.95;7.50;;;;;;;16.70;74.88;99050.81;6171089;23;20025;-95
2023/06/23 05:46:53;;;;;;;10.68;7.50;;;;;;;16.97;75.89;99093.25;6173498;23;20021;-93
2023/06/23 05:49:22;;;;;;;17.20;7.43;;;;;;;16.86;75.17;99065.41;6193234;23;20025;-90
2023/06/23 05:51:57;;;;;;;15.13;7.82;;;;;;;16.80;75.29;99048.31;6138559;23;20072;-90
2023/06/23 05:54:31;;;;;;;17.70;8.32;;;;;;;16.97;75.98;99069.19;6164384;23;20107;-90
2023/06/23 05:57:02;;;;;;;17.08;8.57;;;;;;;16.76;76.01;99025.34;6169771;23;20025;-90
2023/06/23 06:00:09;;;;;;;18.75;8.40;;;;;;;16.78;76.06;99036.03;6193126;23;20032;-93
2023/06/23 06:03:18;;;;;;;15.55;8.93;;;;;;;16.72;75.62;98998.78;6105775;23;20029;-94
2023/06/23 06:06:29;;;;;;;17.45;8.70;;;;;;;17.33;75.91;99069.94;6055664;23;20014;-93
2023/06/23 06:09:01;;;;;;;18.75;9.00;;;;;;;17.40;75.73;99074.81;6044881;23;20019;-94
2023/06/23 06:11:31;;;;;;;15.02;8.38;;;;;;;17.03;75.05;99001.47;6055704;23;20021;-91
2023/06/23 06:14:13;;;;;;;17.38;8.57;;;;;;;16.83;75.41;98969.50;6076120;23;20046;-93
2023/06/23 06:16:44;;;;;;;22.15;10.57;;;;;;;16.94;75.88;98978.78;6046848;23;20062;-92
2023/06/23 06:19:26;;;;;;;20.02;9.98;;;;;;;17.19;76.36;99009.69;6048647;23;20066;-94
2023/06/23 06:21:56;;;;;;;18.45;9.85;;;;;;;17.23;76.12;99020.78;6069471;23;20018;-92
2023/06/23 06:24:25;;;;;;;14.63;9.23;;;;;;;17.18;75.36;99027.38;6069674;23;20053;-90
2023/06/23 06:26:56;;;;;;;13.60;8.63;;;;;;;17.13;74.99;99025.72;6044907;23;20353;-90
2023/06/23 06:29:24;;;;;;;24.30;11.30;;;;;;;17.05;75.56;99017.66;6071720;23;20082;-92
2023/06/23 06:31:51;;;;;;;19.13;10.93;;;;;;;16.99;76.91;98988.75;6027468;23;20022;-93
2023/06/23 06:40:54;;;;;;;21.88;11.55;;;;;;;17.49;78.03;99022.88;6169958;23;20039;-94
2023/06/23 06:45:06;;;;;;;252.30;41.70;;;;;;;17.85;79.37;99052.00;6171746;23;20036;-92
2023/06/23 06:48:22;;;;;;;87.47;29.13;;;;;;;18.00;79.07;99051.06;6074799;23;20129;-90
2023/06/23 06:50:53;;;;;;;34.00;15.10;;;;;;;17.65;79.90;98984.88;6133619;23;20045;-92
2023/06/23 06:54:09;;;;;;;15.05;10.25;;;;;;;18.19;77.84;99050.19;6127775;23;20021;-91
2023/06/23 06:57:31;;;;;;;16.60;10.80;;;;;;;18.37;78.39;99042.16;6101979;23;20025;-93
2023/06/23 07:01:11;;;;;;;17.88;11.75;;;;;;;18.58;77.61;99038.16;6131742;23;20021;-90
2023/06/23 07:04:17;;;;;;;24.23;11.98;;;;;;;18.16;78.08;98936.72;6138338;23;20108;-90
2023/06/23 07:07:32;;;;;;;19.73;12.50;;;;;;;18.94;77.16;99031.13;6134501;23;20017;-91
2023/06/23 07:10:01;;;;;;;18.45;11.55;;;;;;;18.86;76.39;99013.63;6096109;23;20619;-92
2023/06/23 07:12:31;;;;;;;21.98;11.95;;;;;;;18.47;73.91;98964.03;6082486;23;20022;-92
2023/06/23 07:14:57;;;;;;;18.08;11.50;;;;;;;18.72;75.09;98985.75;6070916;23;20424;-91
2023/06/23 07:17:23;;;;;;;25.25;13.52;;;;;;;18.70;75.93;98986.09;6074811;23;20092;-89
2023/06/23 07:19:49;;;;;;;23.27;13.17;;;;;;;18.86;76.40;98987.91;6095047;23;20512;-89
2023/06/23 07:22:25;;;;;;;18.70;13.45;;;;;;;18.88;76.32;98968.97;6093278;23;20034;-89
2023/06/23 07:24:51;;;;;;;26.67;12.82;;;;;;;19.33;76.20;99028.84;6097234;23;20026;-88
2023/06/23 07:27:18;;;;;;;22.17;12.65;;;;;;;19.46;75.04;99037.69;6113431;23;20037;-87
2023/06/23 07:29:46;;;;;;;20.45;14.10;;;;;;;19.47;75.00;99042.09;6113436;23;20123;-90
2023/06/23 07:32:14;;;;;;;25.92;15.10;;;;;;;19.27;75.44;99022.06;6066741;23;20554;-89
2023/06/23 07:34:42;;;;;;;21.15;13.38;;;;;;;19.18;75.99;98991.06;6118773;23;20026;-88
2023/06/23 07:37:11;;;;;;;18.77;13.35;;;;;;;18.99;76.30;98940.19;6116471;23;20041;-91
2023/06/23 07:39:38;;;;;;;21.20;14.07;;;;;;;19.12;76.43;98962.09;6088663;23;20022;-89
2023/06/23 07:42:07;;;;;;;23.73;15.43;;;;;;;19.21;77.00;98979.25;6088840;23;20061;-92
2023/06/23 07:44:36;;;;;;;21.20;13.95;;;;;;;19.08;76.89;98950.19;6069616;23;20025;-89
2023/06/23 07:47:03;;;;;;;22.88;14.38;;;;;;;19.42;76.20;99000.84;6097840;23;20229;-90
2023/06/23 07:49:30;;;;;;;22.13;14.82;;;;;;;19.17;76.29;98962.56;6127799;23;20031;-91
2023/06/23 07:52:04;;;;;;;22.00;14.75;;;;;;;19.20;77.88;98956.28;6122045;23;20025;-90
2023/06/23 07:54:31;;;;;;;20.23;14.88;;;;;;;19.11;77.12;98928.06;6099103;23;20264;-91
2023/06/23 07:56:58;;;;;;;19.20;12.70;;;;;;;19.84;76.76;99035.75;6122485;23;20013;-91
2023/06/23 07:59:27;;;;;;;18.48;14.25;;;;;;;19.71;77.09;99004.72;6123247;23;20463;-92
2023/06/23 08:01:54;;;;;;;17.60;13.50;;;;;;;19.49;77.56;98964.88;6122025;23;20761;-92
2023/06/23 08:04:22;;;;;;;20.98;13.88;;;;;;;19.79;77.66;99002.81;6118362;23;20040;-90
2023/06/23 08:06:51;;;;;;;26.20;14.43;;;;;;;19.69;76.62;98974.59;6126455;23;20017;-93
2023/06/23 08:09:19;;;;;;;16.52;13.05;;;;;;;19.89;76.88;99013.19;6133067;23;20013;-94
2023/06/23 08:12:18;;;;;;;19.85;13.70;;;;;;;19.74;76.63;98972.66;6131008;23;20028;-95
2023/06/23 08:14:52;;;;;;;19.23;12.50;;;;;;;19.71;76.29;98990.84;6046729;23;20026;-94
2023/06/23 08:18:18;;;;;;;22.48;13.07;;;;;;;19.63;76.81;98975.28;6041541;23;20022;-93
2023/06/23 08:21:13;;;;;;;21.35;13.35;;;;;;;20.04;76.98;99026.03;6023275;23;20730;-94
2023/06/23 08:23:59;;;;;;;16.27;12.15;;;;;;;19.73;77.14;98976.59;6039682;23;20027;-94
2023/06/23 08:26:25;;;;;;;17.42;12.18;;;;;;;19.91;76.83;98996.97;6045068;23;20114;-93
2023/06/23 08:29:02;;;;;;;18.02;11.20;;;;;;;19.62;76.63;98945.97;6038825;23;20047;-93
2023/06/23 08:31:38;;;;;;;14.63;10.65;;;;;;;19.78;76.58;98957.63;5961705;23;20051;-92
2023/06/23 08:34:09;;;;;;;16.20;11.23;;;;;;;19.75;76.88;98940.97;6020323;23;20047;-92
2023/06/23 08:40:08;;;;;;;24.27;11.45;;;;;;;19.91;76.45;98970.03;6071402;23;20474;-95
2023/06/23 08:44:35;;;;;;;16.20;11.13;;;;;;;20.12;77.29;99008.25;6048862;23;20106;-95
2023/06/23 08:47:22;;;;;;;16.35;11.57;;;;;;;19.93;77.36;98981.56;6049784;23;20620;-94
2023/06/23 08:50:03;;;;;;;17.92;12.15;;;;;;;19.49;78.22;98937.13;6001767;23;20101;-94
2023/06/23 08:56:26;;;;;;;16.17;11.77;;;;;;;19.52;78.12;98955.78;5932215;24;20060;-95
2023/06/23 08:58:55;;;;;;;18.80;12.63;;;;;;;19.57;78.67;98961.00;5911638;24;20017;-95
2023/06/23 09:01:23;;;;;;;18.50;12.95;;;;;;;19.33;79.02;98929.06;5907367;24;20085;-93
2023/06/23 09:06:51;;;;;;;19.55;12.70;;;;;;;19.36;79.51;98938.59;6086729;23;20002;-90
2023/06/23 09:09:20;;;;;;;16.90;12.73;;;;;;;19.04;78.90;98905.00;6058557;23;20441;-93
2023/06/23 09:11:47;;;;;;;21.25;13.73;;;;;;;19.39;79.74;98969.13;6082947;23;20026;-93
2023/06/23 09:15:13;;;;;;;22.65;14.65;;;;;;;19.38;80.34;98956.44;6113749;23;20113;-92
2023/06/23 09:20:39;;;;;;;22.38;15.32;;;;;;;19.13;81.19;98928.47;6196726;23;20032;-93
2023/06/23 09:23:07;;;;;;;20.63;15.30;;;;;;;19.48;80.98;98986.25;6146280;23;20021;-94
2023/06/23 09:26:26;;;;;;;19.55;15.15;;;;;;;19.61;81.57;99017.28;6171025;23;20017;-95
2023/06/23 09:31:59;;;;;;;23.63;13.77;;;;;;;18.90;82.44;98936.91;6161103;23;20028;-93
2023/06/23 09:34:38;;;;;;;;;;;;;;;19.38;82.47;99011.88;6136381;23;20021;-93
2023/06/23 09:37:10;;;;;;;18.52;12.93;;;;;;;18.85;82.28;98930.94;6113986;23;19936;-93
2023/06/23 09:39:39;;;;;;;16.65;13.68;;;;;;;19.05;82.99;98948.97;6139030;23;20029;-95
2023/06/23 09:42:12;;;;;;;17.77;13.88;;;;;;;19.19;82.89;98956.63;6119943;23;20021;-94
2023/06/23 09:44:45;;;;;;;23.60;14.10;;;;;;;18.81;83.13;98902.38;6140590;23;20028;-94
2023/06/23 09:47:19;;;;;;;21.45;13.77;;;;;;;18.84;82.82;98913.53;6144296;23;20040;-94
2023/06/23 09:50:15;;;;;;;21.10;14.13;;;;;;;19.20;83.34;98959.03;6165874;23;20026;-94
2023/06/23 09:52:42;;;;;;;19.33;13.50;;;;;;;19.06;83.52;98927.59;6118431;23;20072;-91
2023/06/23 09:55:08;;;;;;;18.83;14.35;;;;;;;18.99;83.85;98914.47;6138699;23;20050;-94
2023/06/23 09:57:35;;;;;;;;;;;;;;;19.29;83.84;98975.34;6109476;23;20018;-92
2023/06/23 10:00:03;;;;;;;15.93;12.73;;;;;;;19.23;83.97;98968.56;6088115;23;19917;-90
2023/06/23 10:02:36;;;;;;;19.30;13.55;;;;;;;18.95;83.77;98936.59;6133411;23;20049;-92
2023/06/23 10:05:05;;;;;;;17.98;14.13;;;;;;;18.85;83.98;98919.88;6090796;23;20022;-90
2023/06/23 10:07:34;;;;;;;20.60;13.38;;;;;;;18.97;83.27;98950.88;6110509;23;20014;-93
2023/06/23 10:13:54;;;;;;;14.75;10.15;;;;;;;18.72;82.96;98980.22;6191821;23;20036;-93
2023/06/23 10:16:29;;;;;;;14.75;10.40;;;;;;;18.63;83.83;98976.91;6066005;23;20075;-95
2023/06/23 10:18:57;;;;;;;17.00;10.05;;;;;;;18.80;84.44;98994.94;6120084;23;20065;-92
2023/06/23 10:21:25;;;;;;;11.52;9.48;;;;;;;18.38;83.48;98952.47;6137001;23;20036;-93
2023/06/23 10:26:56;;;;;;;10.07;7.72;;;;;;;18.51;84.23;98998.13;6140952;23;20016;-92
2023/06/23 10:29:24;;;;;;;18.00;8.80;;;;;;;18.19;83.61;98949.81;6184403;23;20411;-93
2023/06/23 10:31:56;;;;;;;14.27;8.50;;;;;;;18.67;84.12;99005.44;6116028;23;20021;-94
2023/06/23 10:34:28;;;;;;;16.85;9.27;;;;;;;18.83;84.47;99010.81;6115884;23;20108;-92
2023/06/23 10:40:24;;;;;;;13.90;7.35;;;;;;;19.00;82.59;98999.94;6142058;23;20030;-93
2023/06/23 10:42:56;;;;;;;11.57;5.47;;;;;;;18.55;82.05;98934.50;6090568;23;20018;-91
2023/06/23 10:45:32;;;;;;;14.02;5.82;;;;;;;18.65;81.47;98944.13;6072060;23;20014;-91
2023/06/23 10:48:18;;;;;;;15.60;5.50;;;;;;;19.25;81.73;99029.94;6066640;23;20033;-90
2023/06/23 10:50:51;;;;;;;11.55;5.13;;;;;;;19.15;81.70;99000.16;6135029;23;20018;-91
2023/06/23 10:53:20;;;;;;;8.48;4.50;;;;;;;19.39;81.88;99030.09;6127622;23;20026;-89
2023/06/23 10:55:54;;;;;;;9.20;5.45;;;;;;;18.87;82.22;98945.97;6103757;23;20487;-89
2023/06/23 10:58:20;;;;;;;9.88;5.43;;;;;;;19.17;82.43;98972.84;6098291;23;20129;-90
2023/06/23 11:01:00;;;;;;;10.27;5.50;;;;;;;19.41;83.32;99002.03;6083656;23;20056;-90
2023/06/23 11:03:36;;;;;;;13.98;5.65;;;;;;;19.26;82.13;98987.19;6127127;23;20021;-92
2023/06/23 11:06:12;;;;;;;18.88;6.03;;;;;;;19.40;82.63;99005.94;6128063;23;20025;-89
2023/06/23 11:08:41;;;;;;;7.43;5.45;;;;;;;19.54;82.41;99005.31;6103647;23;20018;-89
2023/06/23 11:11:30;;;;;;;8.25;5.95;;;;;;;19.38;82.34;98975.84;6103789;23;20026;-91
2023/06/23 11:13:56;;;;;;;15.55;8.85;;;;;;;19.40;81.38;98973.50;6081910;23;20025;-93
2023/06/23 11:16:39;;;;;;;12.97;7.43;;;;;;;19.08;81.26;98939.91;6107722;23;20018;-93
2023/06/23 11:19:10;;;;;;;13.20;8.65;;;;;;;19.70;81.91;99036.38;6114280;23;20735;-95
2023/06/23 11:21:39;;;;;;;16.73;11.85;;;;;;;19.67;80.50;99042.72;6086854;23;20025;-92
2023/06/23 11:24:28;;;;;;;14.05;9.88;;;;;;;19.74;80.59;99033.69;6089284;23;20026;-93
2023/06/23 11:27:10;;;;;;;17.02;10.43;;;;;;;20.00;80.78;99039.06;6117332;23;20025;-93
2023/06/23 11:30:27;;;;;;;12.27;9.40;;;;;;;20.19;80.28;99043.56;6120891;23;20026;-90
2023/06/23 11:34:01;;;;;;;25.23;10.02;;;;;;;20.07;79.02;99013.38;6089884;23;20022;-94
2023/06/23 11:36:56;;;;;;;20.13;12.07;;;;;;;20.45;77.36;99041.78;6095236;23;20017;-92
2023/06/23 11:39:44;;;;;;;20.80;12.07;;;;;;;20.11;77.41;98961.47;6080532;23;20047;-92
2023/06/23 11:42:44;;;;;;;17.85;10.57;;;;;;;20.62;78.17;99021.69;6030013;23;20022;-89
2023/06/23 11:45:21;;;;;;;13.95;10.75;;;;;;;20.17;78.25;98968.25;6069902;23;20373;-91
2023/06/23 11:55:08;;;;;;;15.48;11.85;;;;;;;20.60;78.46;98969.34;6177394;23;20025;-91
2023/06/23 12:01:11;;;;;;;;;;;;;;;;;;;;;
2023/06/23 12:04:23;;;;;;;17.67;9.20;;;;;;;20.81;76.02;98974.19;6193973;23;20463;-89
2023/06/23 12:10:08;;;;;;;15.80;11.17;;;;;;;20.88;73.97;98943.66;6076559;23;20027;-92
2023/06/23 12:13:11;;;;;;;12.45;9.30;;;;;;;20.86;72.77;98937.72;6074557;23;20270;-89
2023/06/23 12:15:41;;;;;;;14.43;10.23;;;;;;;21.28;72.81;98993.81;6252798;22;20024;-90
2023/06/23 12:18:19;;;;;;;15.00;9.60;;;;;;;20.93;72.96;98952.81;6256993;22;20069;-90
2023/06/23 12:21:14;;;;;;;12.95;9.90;;;;;;;21.20;73.75;99017.22;6205753;22;20031;-90
2023/06/23 12:23:46;;;;;;;14.70;10.10;;;;;;;20.90;73.46;98973.06;6256220;22;20023;-92
2023/06/23 12:26:14;;;;;;;19.27;9.80;;;;;;;21.18;73.17;99025.16;6222913;23;20023;-90
2023/06/23 12:28:42;;;;;;;11.57;9.77;;;;;;;20.99;73.75;99006.81;6223298;22;20016;-92
2023/06/23 12:31:34;;;;;;;13.02;9.60;;;;;;;21.25;73.62;99030.72;6225367;22;20022;-93
2023/06/23 12:34:05;;;;;;;14.82;10.15;;;;;;;21.12;72.84;99008.06;6252232;22;20015;-92
2023/06/23 12:36:32;;;;;;;18.98;10.30;;;;;;;21.27;72.68;99026.38;6200638;22;20024;-91
2023/06/23 12:46:24;;;;;;;11.13;8.80;;;;;;;21.45;71.46;98998.66;6126733;23;20424;-91
2023/06/23 12:52:45;;;;;;;15.25;11.32;;;;;;;21.47;72.01;99017.75;6120882;23;20021;-94
2023/06/23 13:01:17;;;;;;;24.98;11.05;;;;;;;21.80;71.29;98984.00;6248427;23;20115;-91
2023/06/23 13:03:46;;;;;;;18.20;9.20;;;;;;;21.74;69.77;98948.63;6174790;23;20129;-91
2023/06/23 13:06:40;;;;;;;23.77;13.60;;;;;;;22.37;69.10;99016.63;6144367;23;20094;-93
2023/06/23 13:19:40;;;;;;;22.55;12.60;;;;;;;22.11;69.81;98989.97;6053081;23;20022;-93
2023/06/23 13:22:26;;;;;;;16.70;11.52;;;;;;;21.94;68.61;98957.38;6080002;23;20018;-92
2023/06/23 13:27:52;;;;;;;19.45;12.18;;;;;;;21.98;67.69;98955.38;6261478;22;20034;-91
2023/06/23 13:34:18;;;;;;;22.08;15.10;;;;;;;22.52;68.62;99014.63;6177855;23;20050;-94
2023/06/23 13:37:27;;;;;;;20.63;11.60;;;;;;;22.52;68.06;99025.78;6154062;23;20351;-95
2023/06/23 13:39:56;;;;;;;19.65;13.88;;;;;;;22.05;67.74;98961.75;6144672;23;20089;-92
2023/06/23 13:42:30;;;;;;;23.33;13.57;;;;;;;22.59;67.80;99019.38;6146780;23;20021;-91
2023/06/23 13:44:57;;;;;;;16.50;12.60;;;;;;;22.22;67.12;98962.16;6167524;23;20017;-93
2023/06/23 13:47:23;;;;;;;24.23;13.68;;;;;;;22.42;66.17;98971.66;6118166;23;20052;-93
2023/06/23 13:49:52;;;;;;;13.77;11.32;;;;;;;22.82;66.48;99021.72;6167527;23;20080;-91
2023/06/23 13:52:19;;;;;;;18.10;12.77;;;;;;;22.79;66.99;99039.25;6148240;23;20474;-91
2023/06/23 13:58:26;;;;;;;24.27;16.05;;;;;;;22.50;68.37;99022.56;6116886;23;20017;-93
2023/06/23 14:01:42;;;;;;;23.63;13.63;;;;;;;22.53;66.81;99010.63;6051732;23;20049;-92
2023/06/23 14:04:36;;;;;;;18.60;13.57;;;;;;;22.52;67.47;99006.28;6078562;23;20022;-91
2023/06/23 14:13:44;;;;;;;16.53;13.00;;;;;;;22.01;66.69;98949.81;6183880;23;20012;-92
2023/06/23 14:16:14;;;;;;;19.35;14.13;;;;;;;22.08;66.00;98965.69;6171446;23;20040;-94
2023/06/23 14:19:26;;;;;;;17.10;13.10;;;;;;;21.85;66.78;98927.16;6194285;23;20032;-90
2023/06/23 14:21:53;;;;;;;24.25;13.73;;;;;;;22.32;65.80;99002.31;6130814;23;20072;-87
2023/06/23 14:24:20;;;;;;;22.02;14.77;;;;;;;22.24;66.61;98984.81;6194466;23;20021;-89
2023/06/23 14:26:46;;;;;;;18.17;13.55;;;;;;;22.37;67.03;99004.69;6190169;23;20410;-92
2023/06/23 14:29:18;;;;;;;22.48;14.85;;;;;;;22.66;64.97;99014.59;6192990;23;20509;-90
2023/06/23 14:31:46;;;;;;;24.02;15.80;;;;;;;22.89;64.33;99004.97;6183494;23;20477;-90
2023/06/23 14:34:12;;;;;;;22.98;15.70;;;;;;;22.86;65.28;99022.50;6181454;23;20025;-91
2023/06/23 14:37:04;;;;;;;27.83;16.55;;;;;;;22.92;64.39;99057.91;6159457;23;20017;-88
2023/06/23 14:39:32;;;;;;;29.02;16.05;;;;;;;22.49;65.95;99010.66;6185577;23;20017;-89
2023/06/23 14:41:58;;;;;;;25.13;15.75;;;;;;;22.44;65.78;99021.38;6187762;23;20083;-93
2023/06/23 14:44:26;;;;;;;31.25;17.90;;;;;;;22.50;66.68;99062.38;6182446;23;20013;-88
2023/06/23 14:46:55;;;;;;;29.02;18.60;;;;;;;22.08;68.04;99032.50;6181427;23;20027;-88
2023/06/23 14:49:21;;;;;;;35.85;19.73;;;;;;;22.10;68.31;99054.41;6158917;23;20099;-85
2023/06/23 14:51:50;;;;;;;35.22;18.73;;;;;;;21.99;68.74;99059.97;6185424;23;20017;-87
2023/06/23 14:54:20;;;;;;;34.97;19.05;;;;;;;21.96;70.37;99066.31;6143914;23;20013;-89
2023/06/23 14:56:48;;;;;;;31.05;18.55;;;;;;;21.88;70.14;99059.94;6143371;23;20016;-88
2023/06/23 14:59:14;;;;;;;27.67;18.08;;;;;;;21.74;70.43;99046.00;6188724;23;20458;-87
2023/06/23 15:01:47;;;;;;;30.30;17.85;;;;;;;22.12;69.07;99060.34;6193052;23;20021;-89
2023/06/23 15:04:15;;;;;;;33.25;19.05;;;;;;;22.31;69.23;99034.13;6193170;23;20043;-88
2023/06/23 15:06:43;;;;;;;32.17;19.02;;;;;;;22.45;67.34;99023.78;6197379;23;20056;-89
2023/06/23 15:09:34;;;;;;;32.83;19.05;;;;;;;22.64;68.85;99067.13;6172993;23;20017;-90
2023/06/23 15:12:24;;;;;;;33.63;19.00;;;;;;;22.54;68.04;98995.50;6172052;23;20034;-87
2023/06/23 15:14:52;;;;;;;27.83;18.25;;;;;;;22.71;66.94;99003.03;6119383;23;20025;-86
2023/06/23 15:17:24;;;;;;;32.78;18.85;;;;;;;22.78;65.78;99009.78;6107321;23;20025;-88
2023/06/23 15:20:20;;;;;;;32.20;19.52;;;;;;;22.93;66.36;99042.00;6079263;23;20579;-87
2023/06/23 15:22:46;;;;;;;29.52;18.92;;;;;;;23.00;65.42;99050.34;6071985;23;20050;-87
2023/06/23 15:25:21;;;;;;;25.60;18.92;;;;;;;22.86;65.53;99019.72;6075363;23;20051;-87
2023/06/23 15:27:56;;;;;;;27.92;19.00;;;;;;;22.67;65.53;98977.16;6097919;23;20056;-90
2023/06/23 15:30:44;;;;;;;26.40;17.85;;;;;;;22.96;64.78;99018.91;6145709;23;20045;-88
2023/06/23 15:33:24;;;;;;;32.15;19.60;;;;;;;22.69;65.79;99024.94;6157220;23;20081;-93
2023/06/23 15:36:41;;;;;;;31.23;19.17;;;;;;;22.74;66.98;99055.16;6134902;23;20052;-87
2023/06/23 15:39:07;;;;;;;29.75;18.67;;;;;;;22.27;66.25;98990.38;6126147;23;20072;-87
2023/06/23 15:41:33;;;;;;;28.35;18.95;;;;;;;22.58;65.57;99024.16;6096429;23;20077;-89
2023/06/23 15:43:59;;;;;;;26.98;18.15;;;;;;;22.68;67.09;99031.72;6122372;23;20021;-93
2023/06/23 15:46:26;;;;;;;27.50;18.45;;;;;;;22.32;66.32;98999.50;6095497;23;20112;-93
2023/06/23 15:48:53;;;;;;;26.17;17.83;;;;;;;22.59;66.04;99039.69;6095972;23;20084;-90
2023/06/23 15:51:22;;;;;;;28.33;20.27;;;;;;;22.34;66.34;98986.00;6135788;23;20037;-87
2023/06/23 15:53:50;;;;;;;33.67;18.30;;;;;;;22.66;65.66;99024.94;6130390;23;20040;-92
2023/06/23 15:57:09;;;;;;;44.33;19.88;;;;;;;22.87;64.72;99049.97;6127202;23;20447;-88
2023/06/23 15:59:36;;;;;;;40.55;19.63;;;;;;;22.65;63.73;99021.38;6151575;23;20017;-89
2023/06/23 16:02:11;;;;;;;39.20;20.75;;;;;;;22.68;64.25;99040.06;6128803;23;20021;-87
2023/06/23 16:04:39;;;;;;;37.30;18.48;;;;;;;22.43;64.24;98997.53;6152453;23;20021;-94
2023/06/23 16:07:09;;;;;;;45.80;21.40;;;;;;;22.46;64.89;99007.88;6123126;23;20042;-92
2023/06/23 16:09:37;;;;;;;39.20;21.08;;;;;;;22.21;65.27;98991.97;6118267;23;20467;-91
2023/06/23 16:12:04;;;;;;;48.28;20.67;;;;;;;22.22;66.39;99013.06;6095907;23;20049;-92
2023/06/23 16:14:31;;;;;;;;;;;;;;;22.41;66.66;99061.19;6071119;23;20024;-92
2023/06/23 16:16:58;;;;;;;85.43;30.10;;;;;;;22.21;65.97;99028.16;6118191;23;19940;-90
2023/06/23 16:19:26;;;;;;;48.70;24.77;;;;;;;22.01;66.61;99021.38;6116403;23;20015;-91
2023/06/23 16:21:53;;;;;;;33.97;19.13;;;;;;;22.20;66.92;99062.00;6093487;23;20353;-87
2023/06/23 16:24:20;;;;;;;34.20;19.65;;;;;;;21.86;67.59;99031.72;6089643;23;20024;-91
2023/06/23 16:26:48;;;;;;;32.83;18.30;;;;;;;21.95;67.47;99048.00;6095845;23;20182;-93
2023/06/23 16:29:17;;;;;;;35.60;19.40;;;;;;;21.83;67.79;99051.19;6088843;23;20110;-91
2023/06/23 16:31:47;;;;;;;31.23;19.40;;;;;;;21.50;68.07;99000.25;6062801;23;20150;-88
2023/06/23 16:34:37;;;;;;;50.80;31.90;;;;;;;21.89;68.07;99072.69;6063926;23;20019;-89
2023/06/23 16:37:46;;;;;;;203.60;122.60;;;;;;;21.56;68.39;99029.28;6061068;23;20098;-88
2023/06/23 16:40:14;;;;;;;38.42;21.95;;;;;;;21.62;68.10;99036.03;6061820;23;20025;-89
2023/06/23 16:42:42;;;;;;;39.83;22.75;;;;;;;21.51;69.02;99015.75;6087780;23;20046;-92
2023/06/23 16:45:20;;;;;;;42.47;27.95;;;;;;;21.63;69.26;99042.41;6038104;23;20022;-92
2023/06/23 16:48:02;;;;;;;80.95;52.83;;;;;;;21.50;69.10;99034.44;6083555;23;20139;-89
2023/06/23 16:50:28;;;;;;;67.32;36.28;;;;;;;21.40;69.53;99023.28;6059353;23;20046;-90
2023/06/23 16:53:20;;;;;;;57.58;35.60;;;;;;;21.67;70.27;99054.34;6065263;23;20022;-90
2023/06/23 16:55:46;;;;;;;36.90;23.65;;;;;;;21.29;69.37;99000.94;6045417;23;20107;-89
2023/06/23 16:58:13;;;;;;;44.80;22.67;;;;;;;21.42;69.90;99029.22;6056496;23;20180;-90
2023/06/23 17:00:39;;;;;;;33.83;20.65;;;;;;;21.35;69.76;99019.66;6059712;23;20097;-88
2023/06/23 17:03:05;;;;;;;33.90;21.85;;;;;;;21.29;69.92;99035.13;6060490;23;20014;-87
2023/06/23 17:05:33;;;;;;;34.53;20.55;;;;;;;21.25;70.49;99033.50;6059369;23;20052;-87
2023/06/23 17:08:09;;;;;;;38.50;21.58;;;;;;;20.93;70.67;98977.81;6035108;23;20022;-92
2023/06/23 17:11:27;;;;;;;;;;;;;;;;;;;;;
2023/06/23 17:13:58;;;;;;;35.78;20.95;;;;;;;20.88;70.56;98993.66;6058909;23;20015;-89
2023/06/23 17:16:25;;;;;;;47.15;26.40;;;;;;;20.79;71.20;98978.53;6059431;23;20015;-90
2023/06/23 17:18:51;;;;;;;45.88;29.52;;;;;;;20.69;71.27;98973.72;6046345;23;20022;-89
2023/06/23 17:21:33;;;;;;;48.58;23.08;;;;;;;20.89;71.45;99013.91;6064220;23;20017;-91
2023/06/23 17:24:09;;;;;;;44.90;26.45;;;;;;;20.97;71.69;99029.44;6086313;23;20026;-90
2023/06/23 17:26:38;;;;;;;46.05;23.65;;;;;;;20.83;72.77;99004.38;6118641;23;20446;-90
2023/06/23 17:29:08;;;;;;;35.97;21.35;;;;;;;20.47;72.80;98958.91;6085306;23;20025;-89
2023/06/23 17:32:14;;;;;;;40.38;22.25;;;;;;;20.95;73.01;99033.78;6040709;23;20018;-90
2023/06/23 17:34:44;;;;;;;31.13;21.05;;;;;;;20.75;73.03;99020.19;6120658;23;20045;-91
2023/06/23 17:37:37;;;;;;;32.72;21.58;;;;;;;20.62;73.18;99013.38;6091982;23;20294;-93
2023/06/23 17:40:04;;;;;;;33.60;22.20;;;;;;;20.64;73.87;99028.47;5951799;23;20019;-87
2023/06/23 17:42:30;;;;;;;;;;;;;;;20.58;74.25;99041.13;5997234;23;20015;-89
2023/06/23 17:44:56;;;;;;;54.55;27.55;;;;;;;20.31;74.65;99011.97;5996255;23;20908;-87
2023/06/23 17:47:25;;;;;;;50.85;27.45;;;;;;;20.19;75.11;99001.94;6019295;23;20019;-87
2023/06/23 17:49:52;;;;;;;45.00;26.08;;;;;;;20.08;74.87;98990.78;5997992;23;20079;-92
2023/06/23 17:52:19;;;;;;;42.78;25.63;;;;;;;19.94;75.09;98985.13;6023215;23;20034;-86
2023/06/23 17:54:46;;;;;;;45.70;25.80;;;;;;;19.88;75.71;98984.66;6021278;23;20019;-90
2023/06/23 17:57:12;;;;;;;44.17;24.67;;;;;;;20.19;76.04;99035.25;5973822;23;20450;-87
2023/06/23 17:59:40;;;;;;;47.83;29.30;;;;;;;19.74;76.09;98972.66;5998840;23;20114;-86
2023/06/23 18:02:12;;;;;;;47.28;28.48;;;;;;;19.93;75.92;99002.91;6024803;23;20019;-89
2023/06/23 18:04:38;;;;;;;60.38;30.23;;;;;;;19.77;76.31;98989.34;6002786;23;20031;-86
2023/06/23 18:07:05;;;;;;;53.67;28.42;;;;;;;19.91;76.09;99025.50;5972892;23;20019;-90
2023/06/23 18:09:57;;;;;;;47.28;28.48;;;;;;;19.92;76.68;99038.19;5996908;23;20029;-90
2023/06/23 18:12:25;;;;;;;47.10;28.05;;;;;;;19.75;76.45;99001.97;5996831;23;20065;-90
2023/06/23 18:14:53;;;;;;;44.83;26.95;;;;;;;19.76;77.48;99020.22;5978192;23;20023;-90
2023/06/23 18:17:20;;;;;;;48.03;28.53;;;;;;;19.66;77.11;99002.28;6074912;23;20033;-88
2023/06/23 18:19:49;;;;;;;56.60;28.92;;;;;;;19.71;77.16;98999.97;6114913;23;20057;-87
2023/06/23 18:25:11;;;;;;;42.95;26.52;;;;;;;19.79;77.06;99011.13;6137777;23;20031;-89
2023/06/23 18:28:11;;;;;;;43.78;25.92;;;;;;;19.95;77.79;99047.72;6112037;23;20025;-91
2023/06/23 18:30:39;;;;;;;48.17;28.95;;;;;;;19.66;78.19;99000.31;6092409;23;20017;-90
2023/06/23 18:33:08;;;;;;;60.00;32.80;;;;;;;20.01;78.12;99050.97;6096572;23;20017;-90
2023/06/23 18:35:37;;;;;;;53.05;33.00;;;;;;;19.74;78.13;99001.19;6120825;23;20125;-88
2023/06/23 18:42:09;;;;;;;57.63;31.17;;;;;;;19.93;78.07;99061.19;6115917;23;20026;-91
2023/06/23 18:44:39;;;;;;;52.63;32.70;;;;;;;19.39;78.55;98994.06;6102181;23;20028;-92
2023/06/23 18:47:05;;;;;;;58.55;31.27;;;;;;;19.68;79.58;99044.31;6104033;23;20021;-91
2023/06/23 18:49:33;;;;;;;61.40;34.15;;;;;;;19.86;80.33;99070.22;6106973;23;20407;-92
2023/06/23 18:52:03;;;;;;;51.58;33.33;;;;;;;19.62;81.01;99021.63;6107519;23;20049;-89
2023/06/23 18:54:29;;;;;;;54.83;33.05;;;;;;;19.59;81.71;99050.13;6134171;23;20108;-93
2023/06/23 18:57:07;;;;;;;55.50;34.15;;;;;;;19.51;82.33;99028.25;6109854;23;20468;-92